Terminal Aerodrome Forecast
Issued by NWS Wilmington, OH

Current Version | Previous Version | Text Only | Print | Product List | Glossary Off
Versions: 1 2 3 4 5 6 7 8 9 10 11 12 13 14 15 16 17 18 19 20 21 22 23 24 25

000
FTUS41 KILN 040500 RRA
TAFCMH
TAF
KCMH 040548Z 0406/0506 30008KT 5SM -RA BR SCT009 OVC015
      TEMPO 0406/0410 BKN009
     FM041000 31007KT 4SM -RA BR BKN008 OVC015
     FM041800 32010KT P6SM BKN015 OVC030
     FM042100 32011KT 3SM -SN OVC012
     FM050400 33009KT P6SM SCT018 OVC120=

USA.gov is the U.S. government's official web portal to all federal, state and local government web resources and services.